Eskridge, Kansas
Current Conditions -  °F | °C
As of 3:53 AM on Friday 19 Dec 2014 (Local Time) from KFOE Reporting Station
Haze Haze  
Wind Chill: -1°   Ceiling: 400
Heat Index: -1°   Visibility: 6mi
Dew Point: -2°   Wind: 0mph
Humidity: 89%   Direction: NA
Pressure: 30.24"   Gusts: NA
Location:  38.86°N, 96.11°W
Report Text: KFOE 190953Z AUTO 00000KT 6SM BR OVC004 M01/M02 A3024 RMK AO2 SLP250 T10061022
Loading
Personal Weather Stations






























Interactive Weather Map New forecast layout! Learn more

10-Day Weather Forecast

Advertisements
Track Severe Weather on mobile